Au Gres, Michigan
Current Conditions -  °F | °C
As of 5:34 AM on Friday 19 Dec 2014 (Local Time) from KOSC Reporting Station
Clear Clear  
Wind Chill: 14°   Ceiling: Unl
Heat Index: 14°   Visibility: 10mi
Dew Point: 12°   Wind: 0mph
Humidity: 93%   Direction: NA
Pressure: 30.22"   Gusts: NA
Location:  44.05°N, 83.7°W
Report Text: KOSC 191034Z AUTO 00000KT 10SM CLR M10/M11 A3022 RMK AO2 T11001110
Loading
Personal Weather Stations






























Interactive Weather Map New forecast layout! Learn more

10-Day Weather Forecast

Advertisements
Track Severe Weather on mobile